Time;durP1;ratioP1;P1;durP2;ratioP2;P2;SDS_P1;SDS_P2;PMS_P1;PMS_P2;Temp;Humidity;BMP_temperature;BMP_pressure;BME280_temperature;BME280_humidity;BME280_pressure;Samples;Min_cycle;Max_cycle;Signal;HPM_P1;HPM_P2
2022/12/02 11:45:44;;;;;;;;;;;;;;;;;;6150292;23;19991;-75
2022/12/02 11:48:14;;;;;;;;;;;;;;;;;;6158015;23;20228;-74
2022/12/02 11:50:40;;;;;;;;;;;;;;;;;;6131522;23;19944;-73
2022/12/02 11:53:15;;;;;;;;;;;;;;;;;;6157670;23;19919;-74
2022/12/02 11:55:42;;;;;;;;;;;;;;;;;;6157715;23;19913;-74
2022/12/02 11:58:26;;;;;;;;;;;;;;;;;;6157860;23;19920;-74
2022/12/02 12:01:00;;;;;;;;;;;;;;;;;;6157862;23;19983;-73
2022/12/02 12:03:25;;;;;;;;;;;;;;;;;;6157704;23;19913;-74
2022/12/02 12:06:09;;;;;;;;;;;;;;;;;;6157861;23;19920;-74
2022/12/02 12:08:36;;;;;;;;;;;;;;;;;;6157915;23;19919;-74
2022/12/02 12:11:14;;;;;;;;;;;;;;;;;;6158104;23;19992;-74
2022/12/02 12:13:59;;;;;;;;;;;;;;;;;;6157370;23;19979;-76
2022/12/02 12:16:25;;;;;;;;;;;;;;;;;;6156714;23;19912;-74
2022/12/02 12:18:51;;;;;;;;;;;;;;;;;;6157948;23;20319;-75
2022/12/02 12:21:29;;;;;;;;;;;;;;;;;;6157720;23;20332;-74
2022/12/02 12:23:54;;;;;;;;;;;;;;;;;;6157452;23;19975;-75
2022/12/02 12:26:30;;;;;;;;;;;;;;;;;;6157436;23;19912;-75
2022/12/02 12:28:59;;;;;;;;;;;;;;;;;;6157501;23;20276;-74
2022/12/02 12:31:25;;;;;;;;;;;;;;;;;;6157633;23;19952;-74
2022/12/02 12:33:50;;;;;;;;;;;;;;;;;;6157625;23;19959;-75
2022/12/02 12:36:15;;;;;;;;;;;;;;;;;;6157618;23;19992;-74
2022/12/02 12:38:41;;;;;;;;;;;;;;;;;;6157630;23;19923;-74
2022/12/02 12:41:06;;;;;;;;;;;;;;;;;;6157485;23;19968;-74
2022/12/02 12:43:31;;;;;;;;;;;;;;;;;;6157268;23;19917;-75
2022/12/02 12:45:56;;;;;;;;;;;;;;;;;;6157644;23;20340;-74
2022/12/02 12:48:22;;;;;;;;;;;;;;;;;;6155799;23;19923;-75
2022/12/02 12:50:47;;;;;;;;;;;;;;;;;;6157406;23;19912;-75
2022/12/02 12:53:12;;;;;;;;;;;;;;;;;;6157051;23;19912;-75
2022/12/02 12:55:38;;;;;;;;;;;;;;;;;;6157323;23;19913;-75
2022/12/02 12:58:03;;;;;;;;;;;;;;;;;;6157220;23;19916;-75
2022/12/02 13:00:28;;;;;;;;;;;;;;;;;;6157934;23;19995;-75
2022/12/02 13:02:53;;;;;;;;;;;;;;;;;;6157355;23;19913;-75
2022/12/02 13:05:19;;;;;;;;;;;;;;;;;;6156989;23;20391;-74
2022/12/02 13:07:44;;;;;;;;;;;;;;;;;;6157170;23;19913;-74
2022/12/02 13:10:10;;;;;;;;;;;;;;;;;;6157273;23;20317;-75
2022/12/02 13:12:35;;;;;;;;;;;;;;;;;;6130913;23;19950;-75
2022/12/02 13:15:00;;;;;;;;;;;;;;;;;;6157253;23;19913;-75
2022/12/02 13:17:25;;;;;;;;;;;;;;;;;;6157097;23;19935;-75
2022/12/02 13:19:51;;;;;;;;;;;;;;;;;;6157173;23;20011;-75
2022/12/02 13:22:16;;;;;;;;;;;;;;;;;;6156942;23;19913;-74
2022/12/02 13:24:41;;;;;;;;;;;;;;;;;;6157218;23;19972;-77
2022/12/02 13:27:07;;;;;;;;;;;;;;;;;;6157111;23;19908;-75
2022/12/02 13:29:32;;;;;;;;;;;;;;;;;;6157098;23;19919;-74
2022/12/02 13:31:57;;;;;;;;;;;;;;;;;;6157214;23;19913;-74
2022/12/02 13:34:23;;;;;;;;;;;;;;;;;;6156954;23;19915;-74
2022/12/02 13:36:48;;;;;;;;;;;;;;;;;;6157486;23;19919;-75
2022/12/02 13:39:13;;;;;;;;;;;;;;;;;;6157245;23;19909;-75
2022/12/02 13:41:38;;;;;;;;;;;;;;;;;;6156991;23;19919;-75
2022/12/02 13:44:04;;;;;;;;;;;;;;;;;;6156623;23;20323;-77
2022/12/02 13:46:30;;;;;;;;;;;;;;;;;;6156790;23;19920;-74
2022/12/02 13:48:55;;;;;;;;;;;;;;;;;;6157395;23;20236;-75
2022/12/02 13:51:20;;;;;;;;;;;;;;;;;;6157109;23;20240;-75
2022/12/02 13:53:45;;;;;;;;;;;;;;;;;;6155258;23;20316;-74
2022/12/02 13:56:11;;;;;;;;;;;;;;;;;;6156913;23;19913;-75
2022/12/02 13:58:36;;;;;;;;;;;;;;;;;;6157100;23;19920;-74
2022/12/02 14:01:02;;;;;;;;;;;;;;;;;;6157270;23;20240;-74
2022/12/02 14:03:27;;;;;;;;;;;;;;;;;;6156907;23;19935;-74
2022/12/02 14:05:52;;;;;;;;;;;;;;;;;;6130676;23;19948;-74
2022/12/02 14:08:17;;;;;;;;;;;;;;;;;;6155253;23;20221;-80
2022/12/02 14:10:43;;;;;;;;;;;;;;;;;;6156749;23;19987;-79
2022/12/02 14:13:08;;;;;;;;;;;;;;;;;;6156659;23;20217;-78
2022/12/02 14:15:33;;;;;;;;;;;;;;;;;;6157062;23;19913;-79
2022/12/02 14:17:59;;;;;;;;;;;;;;;;;;6130749;23;20440;-79
2022/12/02 14:20:24;;;;;;;;;;;;;;;;;;6156861;23;19996;-79
2022/12/02 14:22:50;;;;;;;;;;;;;;;;;;6156767;23;20383;-78
2022/12/02 14:25:15;;;;;;;;;;;;;;;;;;6156787;23;20324;-79
2022/12/02 18:31:01;;;;;;;;;;;;;;;;;;6145013;23;19925;-81
2022/12/02 18:33:27;;;;;;;;;;;;;;;;;;6156703;23;19924;-82
2022/12/02 18:35:52;;;;;;;;;;;;;;;;;;6156587;23;19912;-82
2022/12/02 18:38:17;;;;;;;;;;;;;;;;;;6156686;23;19912;-82
2022/12/02 18:40:43;;;;;;;;;;;;;;;;;;6156518;23;20325;-83
2022/12/02 18:43:08;;;;;;;;;;;;;;;;;;6156579;23;19917;-82
2022/12/02 18:45:33;;;;;;;;;;;;;;;;;;6156696;23;19913;-81
2022/12/02 18:47:59;;;;;;;;;;;;;;;;;;6156709;23;19920;-83
2022/12/02 18:50:24;;;;;;;;;;;;;;;;;;6156459;23;19967;-83
2022/12/02 18:52:49;;;;;;;;;;;;;;;;;;6156768;23;20292;-82
2022/12/02 18:55:15;;;;;;;;;;;;;;;;;;6156699;23;20391;-85
2022/12/02 18:57:40;;;;;;;;;;;;;;;;;;6156503;23;19919;-84
2022/12/02 19:00:07;;;;;;;;;;;;;;;;;;6155134;23;19912;-85
2022/12/02 19:02:32;;;;;;;;;;;;;;;;;;6154824;23;20248;-87
2022/12/02 19:04:58;;;;;;;;;;;;;;;;;;6158445;23;19917;-80
2022/12/02 19:07:23;;;;;;;;;;;;;;;;;;6158169;23;19912;-80
2022/12/02 19:09:48;;;;;;;;;;;;;;;;;;6158394;23;19991;-81
2022/12/02 19:12:13;;;;;;;;;;;;;;;;;;6158409;23;19951;-83
2022/12/02 19:14:39;;;;;;;;;;;;;;;;;;6158914;23;19913;-85
2022/12/02 19:17:04;;;;;;;;;;;;;;;;;;6157546;23;19976;-85
2022/12/02 19:19:29;;;;;;;;;;;;;;;;;;6159381;23;19913;-80
2022/12/02 19:21:55;;;;;;;;;;;;;;;;;;6158999;23;19947;-83
2022/12/02 19:24:20;;;;;;;;;;;;;;;;;;6160010;23;19919;-85
2022/12/02 19:26:45;;;;;;;;;;;;;;;;;;6160468;23;19913;-84
2022/12/02 19:29:12;;;;;;;;;;;;;;;;;;6158449;23;19913;-84
2022/12/02 19:31:37;;;;;;;;;;;;;;;;;;6158474;23;19971;-87
2022/12/02 19:34:03;;;;;;;;;;;;;;;;;;6159838;23;19912;-84
2022/12/02 19:36:28;;;;;;;;;;;;;;;;;;6136306;23;19924;-85
2022/12/02 19:38:53;;;;;;;;;;;;;;;;;;6158429;23;19971;-84
2022/12/02 19:41:19;;;;;;;;;;;;;;;;;;6158147;23;19974;-83
2022/12/02 19:43:44;;;;;;;;;;;;;;;;;;6157879;23;20343;-84
2022/12/02 19:46:09;;;;;;;;;;;;;;;;;;6158197;23;19912;-89
2022/12/02 19:48:35;;;;;;;;;;;;;;;;;;6131825;23;20213;-86
2022/12/02 19:51:00;;;;;;;;;;;;;;;;;;6158212;23;19913;-84
2022/12/02 19:53:25;;;;;;;;;;;;;;;;;;6156305;23;19912;-84
2022/12/02 19:55:51;;;;;;;;;;;;;;;;;;6158125;23;19912;-83
2022/12/02 19:58:16;;;;;;;;;;;;;;;;;;6158201;23;20324;-83
2022/12/02 20:00:41;;;;;;;;;;;;;;;;;;6131727;23;20312;-83
2022/12/02 20:03:06;;;;;;;;;;;;;;;;;;6156265;23;19919;-84
2022/12/02 20:05:32;;;;;;;;;;;;;;;;;;6156333;23;19912;-85
2022/12/02 20:07:57;;;;;;;;;;;;;;;;;;6131677;23;19919;-86
2022/12/02 20:10:22;;;;;;;;;;;;;;;;;;6156267;23;19913;-87
2022/12/02 20:12:48;;;;;;;;;;;;;;;;;;6156178;23;20243;-87
2022/12/02 20:15:14;;;;;;;;;;;;;;;;;;6156027;23;19984;-86
2022/12/02 20:17:40;;;;;;;;;;;;;;;;;;6157996;23;19920;-85
2022/12/02 20:20:06;;;;;;;;;;;;;;;;;;6156100;23;19913;-86
2022/12/02 20:22:32;;;;;;;;;;;;;;;;;;6156077;23;19936;-85
2022/12/02 20:24:57;;;;;;;;;;;;;;;;;;6157761;23;20217;-85
2022/12/02 20:27:23;;;;;;;;;;;;;;;;;;6157546;23;19912;-85
2022/12/02 20:29:48;;;;;;;;;;;;;;;;;;6131549;23;19988;-85
2022/12/02 20:32:13;;;;;;;;;;;;;;;;;;6157411;23;19940;-84
2022/12/02 20:34:39;;;;;;;;;;;;;;;;;;6157771;23;19959;-84
2022/12/02 20:37:06;;;;;;;;;;;;;;;;;;6157440;23;19984;-84
2022/12/02 20:39:31;;;;;;;;;;;;;;;;;;6157492;23;19913;-84
2022/12/02 20:41:56;;;;;;;;;;;;;;;;;;6157488;23;19993;-85
2022/12/02 20:44:22;;;;;;;;;;;;;;;;;;6157628;23;19935;-84
2022/12/02 20:46:47;;;;;;;;;;;;;;;;;;6155853;23;20243;-85
2022/12/02 20:49:13;;;;;;;;;;;;;;;;;;6157438;23;19992;-85
2022/12/02 20:51:38;;;;;;;;;;;;;;;;;;6157502;23;19923;-84
2022/12/02 20:54:03;;;;;;;;;;;;;;;;;;6157528;23;19967;-84
2022/12/02 20:56:29;;;;;;;;;;;;;;;;;;6157399;23;20331;-84
2022/12/02 20:58:54;;;;;;;;;;;;;;;;;;6157470;23;19912;-84
2022/12/02 21:01:19;;;;;;;;;;;;;;;;;;6157407;23;19912;-84
2022/12/02 21:03:45;;;;;;;;;;;;;;;;;;6157349;23;19913;-84
2022/12/02 21:06:10;;;;;;;;;;;;;;;;;;6157425;23;20387;-89
2022/12/02 21:08:35;;;;;;;;;;;;;;;;;;6157468;23;19908;-84
2022/12/02 21:11:01;;;;;;;;;;;;;;;;;;6155730;23;19967;-84
2022/12/02 21:13:26;;;;;;;;;;;;;;;;;;6157149;23;19912;-86
2022/12/02 21:15:51;;;;;;;;;;;;;;;;;;6158510;23;19912;-85
2022/12/02 21:18:17;;;;;;;;;;;;;;;;;;6157735;23;19912;-84
2022/12/02 21:20:42;;;;;;;;;;;;;;;;;;6159603;23;19915;-84
2022/12/02 21:23:08;;;;;;;;;;;;;;;;;;6160789;23;19913;-84
2022/12/02 21:25:33;;;;;;;;;;;;;;;;;;6161411;23;19912;-88
2022/12/02 21:27:59;;;;;;;;;;;;;;;;;;6159965;23;19913;-85
2022/12/02 21:30:25;;;;;;;;;;;;;;;;;;6161602;23;19927;-84
2022/12/02 21:32:50;;;;;;;;;;;;;;;;;;6164198;23;19916;-85
2022/12/02 21:35:15;;;;;;;;;;;;;;;;;;6167437;23;19968;-86
2022/12/02 21:37:41;;;;;;;;;;;;;;;;;;6166819;23;20320;-84
2022/12/02 21:40:06;;;;;;;;;;;;;;;;;;6167946;23;19912;-87
2022/12/02 21:42:32;;;;;;;;;;;;;;;;;;6160397;23;19913;-86
2022/12/02 21:44:57;;;;;;;;;;;;;;;;;;6160704;23;19920;-88
2022/12/02 21:47:22;;;;;;;;;;;;;;;;;;6158603;23;20329;-84
2022/12/02 21:49:48;;;;;;;;;;;;;;;;;;6157369;23;19917;-85
2022/12/02 21:52:13;;;;;;;;;;;;;;;;;;6157584;23;19996;-85
2022/12/02 21:54:38;;;;;;;;;;;;;;;;;;6157614;23;19988;-85
2022/12/02 21:57:05;;;;;;;;;;;;;;;;;;6157351;23;19991;-83
2022/12/02 21:59:30;;;;;;;;;;;;;;;;;;6157464;23;20376;-85
2022/12/02 22:01:55;;;;;;;;;;;;;;;;;;6157391;23;19916;-86
2022/12/02 22:04:21;;;;;;;;;;;;;;;;;;6157004;23;20240;-85
2022/12/02 22:06:47;;;;;;;;;;;;;;;;;;6157184;23;19936;-86
2022/12/02 22:09:12;;;;;;;;;;;;;;;;;;6155421;23;19913;-86
2022/12/02 22:11:37;;;;;;;;;;;;;;;;;;6156895;23;19920;-85
2022/12/02 22:14:03;;;;;;;;;;;;;;;;;;6156895;23;19920;-85
2022/12/02 22:16:30;;;;;;;;;;;;;;;;;;6156773;23;19916;-86
2022/12/02 22:18:56;;;;;;;;;;;;;;;;;;6155190;23;20327;-87
2022/12/02 22:21:22;;;;;;;;;;;;;;;;;;6156784;23;19919;-85
2022/12/02 22:23:47;;;;;;;;;;;;;;;;;;6156651;23;20244;-85
2022/12/02 22:26:12;;;;;;;;;;;;;;;;;;6156452;23;19913;-86
2022/12/02 22:28:38;;;;;;;;;;;;;;;;;;6156671;23;19917;-87
2022/12/02 22:31:03;;;;;;;;;;;;;;;;;;6156403;23;19916;-86
2022/12/02 22:33:29;;;;;;;;;;;;;;;;;;6130645;23;20287;-86
2022/12/02 22:35:54;;;;;;;;;;;;;;;;;;6155049;23;19996;-87
2022/12/02 22:38:19;;;;;;;;;;;;;;;;;;6155918;23;20327;-88
2022/12/02 22:40:45;;;;;;;;;;;;;;;;;;6158830;23;19919;-85
2022/12/02 22:43:10;;;;;;;;;;;;;;;;;;6158861;23;19967;-86
2022/12/02 22:45:35;;;;;;;;;;;;;;;;;;6132725;23;19935;-89
2022/12/02 22:48:01;;;;;;;;;;;;;;;;;;6158748;23;19944;-85
2022/12/02 22:50:27;;;;;;;;;;;;;;;;;;6157179;23;20324;-87
2022/12/02 22:52:52;;;;;;;;;;;;;;;;;;6158816;23;19951;-89
2022/12/02 22:55:17;;;;;;;;;;;;;;;;;;6158903;23;19912;-89
2022/12/02 22:57:43;;;;;;;;;;;;;;;;;;6159076;23;19916;-86
2022/12/02 23:00:09;;;;;;;;;;;;;;;;;;6159193;23;19916;-90
2022/12/02 23:02:34;;;;;;;;;;;;;;;;;;6158646;23;20006;-90
2022/12/02 23:05:00;;;;;;;;;;;;;;;;;;6159111;23;19912;-87
2022/12/02 23:07:25;;;;;;;;;;;;;;;;;;6158545;23;19912;-85
2022/12/02 23:09:50;;;;;;;;;;;;;;;;;;6158612;23;19940;-88
2022/12/02 23:12:16;;;;;;;;;;;;;;;;;;6158442;23;19992;-85
2022/12/02 23:14:41;;;;;;;;;;;;;;;;;;6158721;23;19916;-88
2022/12/02 23:17:06;;;;;;;;;;;;;;;;;;6132557;23;19919;-89
2022/12/02 23:19:32;;;;;;;;;;;;;;;;;;6158386;23;19915;-86
2022/12/02 23:21:57;;;;;;;;;;;;;;;;;;6158437;23;19920;-86
2022/12/02 23:24:22;;;;;;;;;;;;;;;;;;6132271;23;19913;-86
2022/12/02 23:26:48;;;;;;;;;;;;;;;;;;6159012;23;19944;-90
2022/12/02 23:29:13;;;;;;;;;;;;;;;;;;6158555;23;19913;-88
2022/12/02 23:31:38;;;;;;;;;;;;;;;;;;6158319;23;19920;-88
2022/12/02 23:34:03;;;;;;;;;;;;;;;;;;6158448;23;19961;-91
2022/12/02 23:36:29;;;;;;;;;;;;;;;;;;6158665;23;19917;-87
2022/12/02 23:38:54;;;;;;;;;;;;;;;;;;6158348;23;20309;-84
2022/12/02 23:41:19;;;;;;;;;;;;;;;;;;6158483;23;19913;-88
